Zeran (malta) — 9HHJ5 — position and weather

sailwx.info

Track history (hours):
 
Tides and Currents Weather Stations Pressure Air Temp Water Temp Dewpoint Dewpoint Depression Visibility Wind Speed Wind Dir Waves Ship Positions

Zeran (malta)

Last reported at 2016-Dec-04 14:34 UTC. Time now 2016-Dec-08 23:58 UTC.
Position N 43°21' E 009°26'.

Length 148 m; beam 24 m.

Type: Ship (hazmat cat A). MMSI: 249846000.

Date/timePositionNaut miles runAvg speedWind from/ knotsBaromVisibWave heightAir tempDewpointWater temp
2016-Dec-04 14:34N 43°21' E 009°26'1111.0
2016-Dec-04 13:34N 43°31' E 009°21'1111.1
2016-Dec-04 12:34N 43°41' E 009°15'1111.0
2016-Dec-04 11:33N 43°52' E 009°09'1111.2
2016-Dec-04 10:34N 44°02' E 009°04'1211.7
2016-Dec-04 09:34N 44°13' E 008°58'1111.4
2016-Dec-04 08:34N 44°24' E 008°53'1 0.5
2016-Dec-04 07:32N 44°24' E 008°53'0 0.0
2016-Dec-04 06:32N 44°24' E 008°53'0 0.0
2016-Dec-04 05:32N 44°24' E 008°53'0 0.0
2016-Dec-04 04:32N 44°24' E 008°53'0 0.0
2016-Dec-04 03:32N 44°24' E 008°53'0 0.0
2016-Dec-04 02:26N 44°24' E 008°53'0 0.0
2016-Dec-04 01:32N 44°24' E 008°53'0 0.0
2016-Dec-04 00:29N 44°24' E 008°53'0 0.0
2016-Dec-03 23:32N 44°24' E 008°53'0 0.0
2016-Dec-03 22:32N 44°24' E 008°53'0 0.0
2016-Dec-03 21:32N 44°24' E 008°53'0 0.0
2016-Dec-03 20:32N 44°24' E 008°53'0 0.0
2016-Dec-03 19:32N 44°24' E 008°53'0 0.0
2016-Dec-03 18:32N 44°24' E 008°53'0 0.0
2016-Dec-03 17:32N 44°24' E 008°53'0 0.0
2016-Dec-03 16:32N 44°24' E 008°53'0 0.0
2016-Dec-03 15:32N 44°24' E 008°53'0 0.0
2016-Dec-03 14:32N 44°24' E 008°53'0 0.0
2016-Dec-03 13:32N 44°24' E 008°53'0 0.0
2016-Dec-03 12:32N 44°24' E 008°53'0 0.0
2016-Dec-03 11:32N 44°24' E 008°53'3 3.3
2016-Dec-03 10:34N 44°23' E 008°56'1111.2
2016-Dec-03 09:33N 44°13' E 009°03'1313.1
2016-Dec-03 08:33N 44°00' E 009°09'1313.5
2016-Dec-03 07:34N 43°48' E 009°16'1313.4
2016-Dec-03 06:34N 43°35' E 009°23'1313.5
2016-Dec-03 05:34N 43°23' E 009°29'1413.8
2016-Dec-03 04:33N 43°10' E 009°35'1413.7
2016-Dec-03 03:32N 42°56' E 009°41'3213.3
2016-Dec-03 01:06N 42°35' E 010°15'  
2016-Nov-28 05:08N 40°14' E 014°12'812.5
2016-Nov-28 04:32N 40°19' E 014°19'1212.5
2016-Nov-28 03:33N 40°27' E 014°31'283 7.8
2016-Nov-26 15:25N 43°17' E 009°27'1113.3
2016-Nov-26 14:34N 43°28' E 009°21'1313.3
2016-Nov-26 13:34N 43°40' E 009°14'1312.8
2016-Nov-26 12:33N 43°52' E 009°08'1312.9
2016-Nov-26 11:34N 44°04' E 009°01'1313.2
2016-Nov-26 10:34N 44°16' E 008°55'8 7.6
2016-Nov-26 09:29N 44°24' E 008°53'0 0.0
2016-Nov-26 08:32N 44°24' E 008°53'0 0.0
2016-Nov-26 07:29N 44°24' E 008°53'0 0.0
2016-Nov-26 06:32N 44°24' E 008°53'0 0.0
2016-Nov-26 05:29N 44°24' E 008°53'0 0.0
2016-Nov-26 04:32N 44°24' E 008°53'0 0.0
2016-Nov-26 03:32N 44°24' E 008°53'0 0.0
2016-Nov-26 02:32N 44°24' E 008°53'0 0.0
2016-Nov-26 01:29N 44°24' E 008°53'0 0.0
2016-Nov-26 00:26N 44°24' E 008°53'0 0.0
2016-Nov-25 23:29N 44°24' E 008°53'0 0.0
2016-Nov-25 22:32N 44°24' E 008°53'0 0.0
2016-Nov-25 21:32N 44°24' E 008°53'0 0.0
2016-Nov-25 20:32N 44°24' E 008°53'0 0.0
2016-Nov-25 19:32N 44°24' E 008°53'0 0.0
2016-Nov-25 18:29N 44°24' E 008°53'0 0.0
2016-Nov-25 17:32N 44°24' E 008°53'0 0.0
2016-Nov-25 16:32N 44°24' E 008°53'0 0.0
2016-Nov-25 15:32N 44°24' E 008°53'0 0.0
2016-Nov-25 14:32N 44°24' E 008°53'0 0.0
2016-Nov-25 13:29N 44°24' E 008°53'0 0.0
2016-Nov-25 11:32N 44°24' E 008°53'0 0.0
2016-Nov-25 10:32N 44°24' E 008°53'0 0.0
2016-Nov-25 09:32N 44°24' E 008°53'4 3.7
2016-Nov-25 08:33N 44°23' E 008°57'3 3.5
2016-Nov-25 07:34N 44°20' E 009°01'7 6.3
2016-Nov-25 06:29N 44°14' E 009°03'1212.5
2016-Nov-25 05:33N 44°03' E 009°08'1212.2
2016-Nov-25 04:33N 43°51' E 009°14'1212.1
2016-Nov-25 03:33N 43°40' E 009°20'1211.9
2016-Nov-25 02:33N 43°29' E 009°27'1212.1
2016-Nov-25 01:33N 43°18' E 009°32'1212.3
2016-Nov-25 00:33N 43°06' E 009°37'  
Track history (hours):
 
Tides and Currents Weather Stations Pressure Air Temp Water Temp Dewpoint Dewpoint Depression Visibility Wind Speed Wind Dir Waves Ship Positions

Zeran (malta)

Last reported at 2016-Dec-04 14:34 UTC. Time now 2016-Dec-08 23:58 UTC.
Position N 43°21' E 009°26'.

Length 148 m; beam 24 m.

Type: Ship (hazmat cat A). MMSI: 249846000.

Date/timePositionNaut miles runAvg speedWind from/ knotsBaromVisibWave heightAir tempDewpointWater temp
2016-Dec-04 14:34N 43°21' E 009°26'1111.0
2016-Dec-04 13:34N 43°31' E 009°21'1111.1
2016-Dec-04 12:34N 43°41' E 009°15'1111.0
2016-Dec-04 11:33N 43°52' E 009°09'1111.2
2016-Dec-04 10:34N 44°02' E 009°04'1211.7
2016-Dec-04 09:34N 44°13' E 008°58'1111.4
2016-Dec-04 08:34N 44°24' E 008°53'1 0.5
2016-Dec-04 07:32N 44°24' E 008°53'0 0.0
2016-Dec-04 06:32N 44°24' E 008°53'0 0.0
2016-Dec-04 05:32N 44°24' E 008°53'0 0.0
2016-Dec-04 04:32N 44°24' E 008°53'0 0.0
2016-Dec-04 03:32N 44°24' E 008°53'0 0.0
2016-Dec-04 02:26N 44°24' E 008°53'0 0.0
2016-Dec-04 01:32N 44°24' E 008°53'0 0.0
2016-Dec-04 00:29N 44°24' E 008°53'0 0.0
2016-Dec-03 23:32N 44°24' E 008°53'0 0.0
2016-Dec-03 22:32N 44°24' E 008°53'0 0.0
2016-Dec-03 21:32N 44°24' E 008°53'0 0.0
2016-Dec-03 20:32N 44°24' E 008°53'0 0.0
2016-Dec-03 19:32N 44°24' E 008°53'0 0.0
2016-Dec-03 18:32N 44°24' E 008°53'0 0.0
2016-Dec-03 17:32N 44°24' E 008°53'0 0.0
2016-Dec-03 16:32N 44°24' E 008°53'0 0.0
2016-Dec-03 15:32N 44°24' E 008°53'0 0.0
2016-Dec-03 14:32N 44°24' E 008°53'0 0.0
2016-Dec-03 13:32N 44°24' E 008°53'0 0.0
2016-Dec-03 12:32N 44°24' E 008°53'0 0.0
2016-Dec-03 11:32N 44°24' E 008°53'3 3.3
2016-Dec-03 10:34N 44°23' E 008°56'1111.2
2016-Dec-03 09:33N 44°13' E 009°03'1313.1
2016-Dec-03 08:33N 44°00' E 009°09'1313.5
2016-Dec-03 07:34N 43°48' E 009°16'1313.4
2016-Dec-03 06:34N 43°35' E 009°23'1313.5
2016-Dec-03 05:34N 43°23' E 009°29'1413.8
2016-Dec-03 04:33N 43°10' E 009°35'1413.7
2016-Dec-03 03:32N 42°56' E 009°41'3213.3
2016-Dec-03 01:06N 42°35' E 010°15'  
2016-Nov-28 05:08N 40°14' E 014°12'812.5
2016-Nov-28 04:32N 40°19' E 014°19'1212.5
2016-Nov-28 03:33N 40°27' E 014°31'283 7.8
2016-Nov-26 15:25N 43°17' E 009°27'1113.3
2016-Nov-26 14:34N 43°28' E 009°21'1313.3
2016-Nov-26 13:34N 43°40' E 009°14'1312.8
2016-Nov-26 12:33N 43°52' E 009°08'1312.9
2016-Nov-26 11:34N 44°04' E 009°01'1313.2
2016-Nov-26 10:34N 44°16' E 008°55'8 7.6
2016-Nov-26 09:29N 44°24' E 008°53'0 0.0
2016-Nov-26 08:32N 44°24' E 008°53'0 0.0
2016-Nov-26 07:29N 44°24' E 008°53'0 0.0
2016-Nov-26 06:32N 44°24' E 008°53'0 0.0
2016-Nov-26 05:29N 44°24' E 008°53'0 0.0
2016-Nov-26 04:32N 44°24' E 008°53'0 0.0
2016-Nov-26 03:32N 44°24' E 008°53'0 0.0
2016-Nov-26 02:32N 44°24' E 008°53'0 0.0
2016-Nov-26 01:29N 44°24' E 008°53'0 0.0
2016-Nov-26 00:26N 44°24' E 008°53'0 0.0
2016-Nov-25 23:29N 44°24' E 008°53'0 0.0
2016-Nov-25 22:32N 44°24' E 008°53'0 0.0
2016-Nov-25 21:32N 44°24' E 008°53'0 0.0
2016-Nov-25 20:32N 44°24' E 008°53'0 0.0
2016-Nov-25 19:32N 44°24' E 008°53'0 0.0
2016-Nov-25 18:29N 44°24' E 008°53'0 0.0
2016-Nov-25 17:32N 44°24' E 008°53'0 0.0
2016-Nov-25 16:32N 44°24' E 008°53'0 0.0
2016-Nov-25 15:32N 44°24' E 008°53'0 0.0
2016-Nov-25 14:32N 44°24' E 008°53'0 0.0
2016-Nov-25 13:29N 44°24' E 008°53'0 0.0
2016-Nov-25 11:32N 44°24' E 008°53'0 0.0
2016-Nov-25 10:32N 44°24' E 008°53'0 0.0
2016-Nov-25 09:32N 44°24' E 008°53'4 3.7
2016-Nov-25 08:33N 44°23' E 008°57'3 3.5
2016-Nov-25 07:34N 44°20' E 009°01'7 6.3
2016-Nov-25 06:29N 44°14' E 009°03'1212.5
2016-Nov-25 05:33N 44°03' E 009°08'1212.2
2016-Nov-25 04:33N 43°51' E 009°14'1212.1
2016-Nov-25 03:33N 43°40' E 009°20'1211.9
2016-Nov-25 02:33N 43°29' E 009°27'1212.1
2016-Nov-25 01:33N 43°18' E 009°32'1212.3
2016-Nov-25 00:33N 43°06' E 009°37'  

Dump ship's entire track history